Time;durP1;ratioP1;P1;durP2;ratioP2;P2;SDS_P1;SDS_P2;PMS_P1;PMS_P2;Temp;Humidity;BMP_temperature;BMP_pressure;BME280_temperature;BME280_humidity;BME280_pressure;Samples;Min_cycle;Max_cycle;Signal;HPM_P1;HPM_P2
2022/07/17 00:02:14;;;;;;;12.03;6.58;;;;;;;13.95;79.88;94854.48;1643865;86;20987;-57
2022/07/17 00:04:42;;;;;;;12.70;6.60;;;;;;;13.89;80.29;94865.44;1639064;86;21442;-57
2022/07/17 00:07:11;;;;;;;11.03;6.60;;;;;;;13.89;80.58;94866.03;1648680;86;21412;-57
2022/07/17 00:09:40;;;;;;;16.57;6.70;;;;;;;13.92;80.88;94865.09;1634264;86;21106;-57
2022/07/17 00:12:09;;;;;;;10.65;6.65;;;;;;;13.89;80.85;94876.50;1637555;86;21070;-55
2022/07/17 00:14:37;;;;;;;9.83;5.75;;;;;;;13.88;81.13;94867.27;1632391;86;21041;-57
2022/07/17 00:17:06;;;;;;;10.55;5.10;;;;;;;13.92;80.94;94876.16;1626877;86;21019;-56
2022/07/17 00:19:34;;;;;;;7.80;5.15;;;;;;;13.99;80.13;94874.47;1619086;87;21248;-56
2022/07/17 00:22:03;;;;;;;5.40;3.60;;;;;;;14.10;79.54;94880.27;1641951;86;21023;-57
2022/07/17 00:24:31;;;;;;;9.35;3.42;;;;;;;14.18;75.96;94871.83;1633728;86;21569;-57
2022/07/17 00:27:00;;;;;;;4.20;3.12;;;;;;;14.35;74.53;94884.06;1642203;86;21069;-56
2022/07/17 00:29:28;;;;;;;10.98;4.03;;;;;;;14.49;73.66;94889.05;1620739;87;20996;-55
2022/07/17 00:31:56;;;;;;;4.35;3.22;;;;;;;14.64;73.27;94891.92;1642340;86;21238;-56
2022/07/17 00:34:24;;;;;;;7.45;2.87;;;;;;;14.71;72.11;94902.03;1648416;86;21035;-58
2022/07/17 00:36:52;;;;;;;3.27;2.50;;;;;;;14.79;70.60;94912.16;1611530;87;20993;-57
2022/07/17 00:39:20;;;;;;;3.87;2.40;;;;;;;14.87;69.59;94908.56;1633754;86;21043;-58
2022/07/17 00:41:49;;;;;;;4.12;2.22;;;;;;;14.92;68.88;94913.45;1644967;86;20991;-56
2022/07/17 00:44:17;;;;;;;2.30;2.10;;;;;;;14.97;68.51;94921.11;1636416;86;21221;-57
2022/07/17 00:46:46;;;;;;;3.80;2.62;;;;;;;15.02;67.06;94923.86;1639823;86;20975;-56
2022/07/17 00:49:14;;;;;;;5.55;3.45;;;;;;;15.06;66.45;94922.45;1642765;86;21044;-59
2022/07/17 00:51:42;;;;;;;5.40;3.90;;;;;;;15.09;67.91;94927.66;1639802;86;21034;-57
2022/07/17 00:54:10;;;;;;;5.90;3.50;;;;;;;15.06;68.46;94929.38;1641166;86;21102;-56
2022/07/17 00:56:40;;;;;;;9.93;5.20;;;;;;;15.05;68.67;94927.85;1647364;87;21188;-56
2022/07/17 00:59:08;;;;;;;8.95;5.60;;;;;;;15.07;70.43;94925.98;1634444;86;21431;-57
2022/07/17 01:01:37;;;;;;;16.15;6.42;;;;;;;15.03;71.35;94928.16;1621936;87;21055;-56
2022/07/17 01:04:06;;;;;;;10.72;6.47;;;;;;;14.94;72.49;94941.45;1636830;86;21130;-56
2022/07/17 01:06:34;;;;;;;10.38;6.65;;;;;;;14.87;73.26;94950.72;1647084;86;21059;-56
2022/07/17 01:09:02;;;;;;;12.45;5.70;;;;;;;14.78;73.81;94943.23;1640775;86;21109;-56
2022/07/17 01:11:31;;;;;;;11.03;5.30;;;;;;;14.71;74.24;94944.96;1625316;86;21074;-57
2022/07/17 01:13:59;;;;;;;14.63;5.78;;;;;;;14.67;74.63;94949.13;1643903;86;20972;-56
2022/07/17 01:16:27;;;;;;;8.18;5.03;;;;;;;14.66;74.91;94959.42;1634549;86;21003;-57
2022/07/17 01:18:56;;;;;;;7.97;5.50;;;;;;;14.65;75.36;94962.67;1647351;86;20987;-57
2022/07/17 01:21:24;;;;;;;9.45;5.42;;;;;;;14.63;75.83;94931.92;1629604;86;21239;-57
2022/07/17 01:23:53;;;;;;;11.30;6.03;;;;;;;14.59;76.84;94886.39;1640079;86;21017;-57
2022/07/17 01:26:21;;;;;;;6.67;5.20;;;;;;;14.51;77.85;94901.05;1635828;86;21058;-57
2022/07/17 01:28:50;;;;;;;8.88;5.08;;;;;;;14.43;78.05;94913.07;1657646;86;21053;-57
2022/07/17 01:31:19;;;;;;;9.88;4.92;;;;;;;14.43;78.01;94935.22;1648710;86;21171;-55
2022/07/17 01:33:47;;;;;;;6.75;5.40;;;;;;;14.40;78.95;94940.91;1639882;86;21200;-55
2022/07/17 01:36:18;;;;;;;10.50;5.60;;;;;;;14.37;79.89;94950.16;1628339;86;20979;-56
2022/07/17 01:38:46;;;;;;;7.22;5.80;;;;;;;14.38;80.37;94939.86;1639874;87;21535;-57
2022/07/17 01:41:15;;;;;;;7.47;4.97;;;;;;;14.38;81.23;94940.61;1648563;87;20992;-59
2022/07/17 01:43:45;;;;;;;6.35;4.35;;;;;;;14.40;81.54;94946.45;1631793;86;21141;-56
2022/07/17 01:46:14;;;;;;;6.53;4.60;;;;;;;14.42;81.31;94938.47;1624504;86;21159;-56
2022/07/17 01:48:42;;;;;;;8.20;5.37;;;;;;;14.41;81.43;94941.69;1632348;86;21011;-57
2022/07/17 01:51:11;;;;;;;10.05;5.28;;;;;;;14.38;81.80;94929.55;1646520;86;21527;-55
2022/07/17 01:53:41;;;;;;;7.50;4.90;;;;;;;14.41;82.40;94932.00;1635904;86;21051;-56
2022/07/17 01:56:09;;;;;;;7.15;4.72;;;;;;;14.47;82.25;94925.37;1651675;86;21192;-56
2022/07/17 01:58:38;;;;;;;4.40;3.95;;;;;;;14.45;82.02;94929.23;1645557;86;21151;-56
2022/07/17 02:01:06;;;;;;;9.23;4.95;;;;;;;14.39;82.08;94940.02;1641855;86;21112;-56
2022/07/17 02:03:35;;;;;;;15.43;4.70;;;;;;;14.34;82.51;94937.25;1646156;85;21118;-57
2022/07/17 02:06:03;;;;;;;8.28;4.08;;;;;;;14.33;82.80;94937.73;1639956;87;21096;-57
2022/07/17 02:08:33;;;;;;;6.90;4.20;;;;;;;14.29;83.02;94934.34;1632394;86;21087;-56
2022/07/17 02:11:01;;;;;;;8.70;3.85;;;;;;;14.27;82.96;94942.34;1636996;87;21125;-57
2022/07/17 02:13:30;;;;;;;4.67;3.47;;;;;;;14.25;82.84;94942.83;1641775;86;21093;-56
2022/07/17 02:15:58;;;;;;;3.37;3.08;;;;;;;14.25;83.11;94933.14;1625044;86;21180;-57
2022/07/17 02:18:27;;;;;;;4.12;3.22;;;;;;;14.28;82.57;94936.96;1648980;86;20987;-56
2022/07/17 02:20:56;;;;;;;4.42;3.25;;;;;;;14.18;82.12;94922.39;1636467;86;21126;-57
2022/07/17 02:23:24;;;;;;;4.35;2.80;;;;;;;14.12;82.46;94926.21;1642323;86;21266;-57
2022/07/17 02:25:52;;;;;;;3.80;2.75;;;;;;;14.08;82.72;94915.93;1639016;86;21004;-57
2022/07/17 02:28:21;;;;;;;4.17;3.20;;;;;;;14.05;82.82;94916.27;1637469;86;21545;-57
2022/07/17 02:30:49;;;;;;;6.33;3.15;;;;;;;14.08;83.33;94925.61;1641334;86;20997;-57
2022/07/17 02:33:18;;;;;;;3.72;2.90;;;;;;;14.11;83.15;94932.37;1625862;86;21081;-59
2022/07/17 02:35:47;;;;;;;3.22;2.83;;;;;;;14.13;82.93;94926.36;1640816;87;21111;-57
2022/07/17 02:38:15;;;;;;;6.03;3.55;;;;;;;14.13;82.93;94934.66;1642213;86;21495;-57
2022/07/17 02:40:45;;;;;;;3.42;2.55;;;;;;;14.14;82.93;94936.22;1644449;86;21041;-56
2022/07/17 02:43:14;;;;;;;4.50;2.65;;;;;;;14.15;82.97;94939.89;1639597;86;21026;-56
2022/07/17 02:45:42;;;;;;;5.10;3.17;;;;;;;14.17;83.03;94939.47;1632680;86;21577;-57
2022/07/17 02:48:10;;;;;;;4.08;3.33;;;;;;;14.17;82.93;94949.16;1557744;89;21942;-57
2022/07/17 02:50:39;;;;;;;3.40;3.10;;;;;;;14.19;83.50;94963.29;1610861;87;21472;-56
2022/07/17 02:53:07;;;;;;;3.30;3.00;;;;;;;14.22;83.25;94970.66;1641513;86;21085;-57
2022/07/17 02:55:36;;;;;;;3.40;2.58;;;;;;;14.17;83.52;94967.89;1634805;86;21431;-57
2022/07/17 02:58:04;;;;;;;5.33;3.00;;;;;;;14.22;83.68;94965.13;1642273;86;21026;-57
2022/07/17 03:00:32;;;;;;;3.12;2.83;;;;;;;14.17;83.53;94951.92;1644410;86;21274;-57
2022/07/17 03:03:01;;;;;;;4.10;3.10;;;;;;;14.03;84.02;94955.30;1640179;86;21062;-56
2022/07/17 03:05:30;;;;;;;2.70;2.50;;;;;;;13.90;84.40;94958.84;1643627;86;21113;-56
2022/07/17 03:07:58;;;;;;;3.35;2.67;;;;;;;13.86;84.82;94960.41;1637981;86;21074;-56
2022/07/17 03:10:26;;;;;;;3.55;2.65;;;;;;;13.89;85.03;94966.98;1634221;86;20988;-55
2022/07/17 03:12:54;;;;;;;3.05;2.77;;;;;;;13.90;85.36;94969.91;1611913;86;21806;-56
2022/07/17 03:15:23;;;;;;;2.98;2.65;;;;;;;13.88;85.48;94973.75;1629772;86;21034;-57
2022/07/17 03:17:52;;;;;;;3.77;2.67;;;;;;;13.85;85.81;94971.91;1627451;86;21025;-56
2022/07/17 03:20:20;;;;;;;2.87;2.52;;;;;;;13.81;85.92;94974.08;1640964;86;21205;-56
2022/07/17 03:22:49;;;;;;;2.95;2.65;;;;;;;13.78;86.23;94966.08;1640018;86;21495;-56
2022/07/17 03:25:17;;;;;;;3.72;3.05;;;;;;;13.79;86.63;94969.63;1644341;86;21154;-58
2022/07/17 03:27:45;;;;;;;3.47;3.10;;;;;;;13.76;86.86;94978.22;1640101;86;20971;-57
2022/07/17 03:30:14;;;;;;;2.92;2.67;;;;;;;13.73;87.06;94970.06;1644324;86;20966;-57
2022/07/17 03:32:43;;;;;;;2.67;2.45;;;;;;;13.73;87.66;94970.84;1633961;86;21595;-57
2022/07/17 03:35:11;;;;;;;5.40;3.05;;;;;;;13.79;87.91;94971.01;1649952;85;21082;-56
2022/07/17 03:37:43;;;;;;;8.63;3.17;;;;;;;13.83;87.62;94979.28;1652196;86;21011;-56
2022/07/17 03:40:12;;;;;;;3.60;3.30;;;;;;;13.88;87.71;94981.45;1642355;86;21559;-56
2022/07/17 03:42:40;;;;;;;3.58;3.10;;;;;;;13.94;87.31;94981.57;1642231;86;21161;-57
2022/07/17 03:45:10;;;;;;;4.28;3.30;;;;;;;13.94;86.94;94974.05;1629652;86;20990;-56
2022/07/17 03:47:39;;;;;;;2.90;2.52;;;;;;;13.99;86.71;94976.19;1642174;86;20972;-57
2022/07/17 03:50:08;;;;;;;7.87;3.20;;;;;;;14.00;86.58;94976.97;1631698;86;21131;-57
2022/07/17 03:52:36;;;;;;;2.98;2.75;;;;;;;14.03;86.58;94980.19;1647817;86;21443;-57
2022/07/17 03:55:04;;;;;;;8.18;2.90;;;;;;;14.02;86.68;94972.50;1628984;86;21038;-57
2022/07/17 03:57:33;;;;;;;3.30;2.67;;;;;;;14.06;86.68;94973.73;1640979;86;21519;-57
2022/07/17 04:00:01;;;;;;;3.30;2.50;;;;;;;14.10;86.53;94974.33;1637911;86;21011;-56
2022/07/17 04:02:31;;;;;;;4.40;3.10;;;;;;;14.11;86.58;94986.93;1640598;86;21100;-56
2022/07/17 04:04:59;;;;;;;6.15;2.90;;;;;;;14.12;86.65;94994.78;1628134;86;20974;-56
2022/07/17 04:07:27;;;;;;;6.78;2.85;;;;;;;14.17;86.44;94994.81;1637256;86;21018;-57
2022/07/17 04:09:59;;;;;;;5.15;2.80;;;;;;;14.23;86.64;94998.48;1639982;86;21482;-57
2022/07/17 04:12:26;;;;;;;2.90;2.62;;;;;;;14.38;86.84;94995.98;1624284;86;21455;-57
2022/07/17 04:14:55;;;;;;;3.60;2.87;;;;;;;14.51;86.63;94994.58;1645797;86;21132;-57
2022/07/17 04:17:23;;;;;;;3.00;2.75;;;;;;;14.58;86.67;94995.63;1643685;86;21150;-57
2022/07/17 04:19:51;;;;;;;4.60;2.70;;;;;;;14.65;86.56;94992.51;1651993;86;20987;-57
2022/07/17 04:22:19;;;;;;;5.00;2.70;;;;;;;14.74;86.17;94993.87;1639825;86;21090;-57
2022/07/17 04:24:47;;;;;;;4.30;2.80;;;;;;;14.77;85.28;94995.70;1638480;86;21263;-57
2022/07/17 04:27:17;;;;;;;3.35;2.90;;;;;;;14.73;84.78;95000.65;1629901;86;21242;-57
2022/07/17 04:29:45;;;;;;;4.92;2.85;;;;;;;14.71;84.96;95003.12;1641474;86;20988;-57
2022/07/17 04:32:13;;;;;;;4.45;2.92;;;;;;;14.71;84.79;94999.57;1634514;86;21023;-57
2022/07/17 04:34:41;;;;;;;2.83;2.62;;;;;;;14.68;84.38;95002.67;1630051;86;21625;-57
2022/07/17 04:37:10;;;;;;;3.20;2.90;;;;;;;14.65;84.35;95001.45;1646245;86;21097;-57
2022/07/17 04:39:39;;;;;;;3.92;2.90;;;;;;;14.67;84.47;95003.13;1619334;86;21284;-57
2022/07/17 04:42:08;;;;;;;5.40;2.92;;;;;;;14.73;84.38;94999.27;1635491;86;21071;-57
2022/07/17 04:44:36;;;;;;;6.03;3.15;;;;;;;14.86;84.44;95001.22;1631140;86;21518;-57
2022/07/17 04:47:04;;;;;;;4.28;3.08;;;;;;;15.11;84.38;95003.55;1652603;85;21051;-57
2022/07/17 04:49:32;;;;;;;3.00;2.70;;;;;;;15.43;83.38;94998.63;1633736;86;21207;-56
2022/07/17 04:52:02;;;;;;;2.35;2.15;;;;;;;15.68;81.63;94995.36;1636591;86;21129;-56
2022/07/17 04:54:30;;;;;;;3.45;2.22;;;;;;;15.73;79.90;94996.09;1631963;86;21131;-56
2022/07/17 04:56:59;;;;;;;3.02;2.70;;;;;;;15.61;79.63;94999.11;1635776;85;21699;-56
2022/07/17 04:59:28;;;;;;;4.17;2.70;;;;;;;15.49;78.82;94998.12;1637658;86;21172;-56
2022/07/17 05:01:56;;;;;;;2.65;2.33;;;;;;;15.41;77.35;94996.95;1632241;87;21565;-57
2022/07/17 05:04:25;;;;;;;3.05;2.62;;;;;;;15.35;77.28;95004.36;1625284;87;21872;-56
2022/07/17 05:06:53;;;;;;;3.62;2.12;;;;;;;15.32;77.96;95003.92;1641413;86;21601;-58
2022/07/17 05:09:22;;;;;;;3.08;2.52;;;;;;;15.36;77.11;95000.34;1635758;86;21184;-58
2022/07/17 05:11:51;;;;;;;3.35;2.30;;;;;;;15.40;77.13;94998.16;1628025;86;21585;-57
2022/07/17 05:14:19;;;;;;;3.20;2.58;;;;;;;15.49;76.99;94998.72;1637039;86;20975;-57
2022/07/17 05:16:50;;;;;;;5.58;3.27;;;;;;;15.56;76.64;95003.30;1634700;86;21042;-57
2022/07/17 05:19:18;;;;;;;4.20;2.60;;;;;;;15.67;76.77;95002.76;1596816;86;20951;-57
2022/07/17 05:21:47;;;;;;;4.10;2.52;;;;;;;15.76;77.31;95004.09;1622415;87;21447;-57
2022/07/17 05:24:15;;;;;;;2.42;2.22;;;;;;;15.85;77.78;95006.78;1644389;85;21046;-57
2022/07/17 05:26:43;;;;;;;3.12;2.50;;;;;;;15.98;77.61;95003.14;1627645;86;21090;-57
2022/07/17 05:29:12;;;;;;;3.45;2.08;;;;;;;16.11;77.27;95003.02;1641179;86;21273;-56
2022/07/17 05:31:40;;;;;;;2.80;2.12;;;;;;;16.26;76.31;94999.64;1639924;86;21091;-57
2022/07/17 05:34:08;;;;;;;2.58;2.08;;;;;;;16.36;75.15;94992.80;1644278;86;20987;-56
2022/07/17 05:36:37;;;;;;;4.53;2.30;;;;;;;16.44;74.90;94993.94;1639033;86;20984;-57
2022/07/17 05:39:06;;;;;;;4.08;2.25;;;;;;;16.60;74.50;94993.45;1628255;86;21617;-57
2022/07/17 05:41:34;;;;;;;3.27;2.12;;;;;;;16.78;73.56;94994.64;1637574;86;21561;-57
2022/07/17 05:44:02;;;;;;;3.00;2.70;;;;;;;16.91;69.35;94997.89;1639429;86;20968;-58
2022/07/17 05:46:32;;;;;;;4.03;2.30;;;;;;;16.92;68.15;94996.00;1626998;87;21496;-57
2022/07/17 05:49:01;;;;;;;3.25;2.00;;;;;;;16.96;68.43;94997.20;1613096;86;21094;-56
2022/07/17 05:51:30;;;;;;;3.83;2.20;;;;;;;16.99;68.54;95000.41;1634652;86;20967;-57
2022/07/17 05:53:58;;;;;;;2.52;1.80;;;;;;;17.05;67.79;95003.41;1596891;86;21858;-57
2022/07/17 05:56:26;;;;;;;3.33;1.92;;;;;;;17.08;62.61;95005.86;1636661;85;20908;-57
2022/07/17 05:58:54;;;;;;;2.25;1.72;;;;;;;17.06;60.96;94998.00;1644807;86;21079;-57
2022/07/17 06:01:22;;;;;;;2.92;1.40;;;;;;;17.08;60.10;95000.30;1647038;86;21051;-57
2022/07/17 06:03:51;;;;;;;1.70;1.50;;;;;;;17.13;57.96;95007.95;1636127;86;21004;-57
2022/07/17 06:06:19;;;;;;;2.67;1.77;;;;;;;17.19;57.65;95010.19;1608758;86;21145;-57
2022/07/17 06:08:47;;;;;;;2.58;1.82;;;;;;;17.20;57.05;95010.33;1635162;86;21203;-57
2022/07/17 06:11:16;;;;;;;2.62;1.90;;;;;;;17.24;57.84;95006.74;1641964;86;21109;-57
2022/07/17 06:13:45;;;;;;;3.37;1.45;;;;;;;17.30;57.75;95013.14;1646629;86;21074;-57
2022/07/17 06:16:13;;;;;;;1.90;1.52;;;;;;;17.30;56.05;95007.58;1625863;86;21086;-56
2022/07/17 06:18:43;;;;;;;4.40;1.65;;;;;;;17.31;55.13;95016.06;1629559;85;21196;-57
2022/07/17 06:21:11;;;;;;;2.98;1.60;;;;;;;17.29;54.51;95013.00;1627061;86;21098;-57
2022/07/17 06:23:39;;;;;;;3.30;1.52;;;;;;;17.19;55.03;95013.75;1643548;86;21118;-57
2022/07/17 06:26:07;;;;;;;3.35;2.08;;;;;;;17.13;55.17;95012.88;1639464;86;20966;-57
2022/07/17 06:28:36;;;;;;;7.90;1.67;;;;;;;17.15;55.35;95024.31;1614323;87;20987;-57
2022/07/17 06:31:05;;;;;;;3.02;1.72;;;;;;;17.25;54.31;95020.78;1584394;89;21280;-57
2022/07/17 06:33:36;;;;;;;2.62;1.60;;;;;;;17.34;54.10;95010.95;1612584;88;21562;-58
2022/07/17 06:36:05;;;;;;;10.68;1.50;;;;;;;17.38;52.83;95019.84;1634244;86;21028;-58
2022/07/17 06:38:33;;;;;;;2.77;1.50;;;;;;;17.40;52.08;95020.12;1592064;89;21510;-61
2022/07/17 06:41:03;;;;;;;3.12;1.42;;;;;;;17.39;50.04;95014.42;1644298;85;20982;-57
2022/07/17 06:43:31;;;;;;;2.65;1.25;;;;;;;17.39;49.46;95026.33;1639933;86;21350;-58
2022/07/17 06:46:00;;;;;;;1.60;1.40;;;;;;;17.45;49.04;95022.99;1624107;86;21014;-57
2022/07/17 06:48:29;;;;;;;4.53;1.35;;;;;;;17.50;49.01;95021.55;1633334;86;20986;-57
2022/07/17 06:50:58;;;;;;;2.80;1.35;;;;;;;17.54;48.17;95020.70;1635427;86;21137;-56
2022/07/17 06:53:26;;;;;;;4.25;1.40;;;;;;;17.55;48.60;95022.23;1613662;86;20979;-57
2022/07/17 06:55:54;;;;;;;2.30;1.27;;;;;;;17.64;47.32;95019.34;1634985;86;21236;-58
2022/07/17 06:58:22;;;;;;;2.70;1.45;;;;;;;17.76;47.06;95021.00;1630181;87;21100;-58
2022/07/17 07:00:50;;;;;;;1.82;1.52;;;;;;;17.93;48.26;95024.77;1631187;86;21082;-57
2022/07/17 07:03:18;;;;;;;5.80;1.77;;;;;;;18.08;45.85;95026.84;1632739;86;21079;-57
2022/07/17 07:05:46;;;;;;;3.55;1.80;;;;;;;18.15;45.50;95031.37;1589065;86;21577;-57
2022/07/17 07:08:14;;;;;;;2.27;1.95;;;;;;;18.17;45.32;95028.11;1637963;87;21182;-57
2022/07/17 07:10:44;;;;;;;4.42;1.27;;;;;;;18.17;46.17;95028.11;1634045;86;21732;-57
2022/07/17 07:13:15;;;;;;;1.50;1.22;;;;;;;18.20;45.08;95023.08;1632100;87;21242;-57
2022/07/17 07:15:43;;;;;;;1.98;1.15;;;;;;;18.32;45.17;95026.14;1611176;86;21107;-57
2022/07/17 07:18:11;;;;;;;3.65;1.47;;;;;;;18.40;44.04;95030.66;1632905;86;20999;-59
2022/07/17 07:20:39;;;;;;;4.97;1.60;;;;;;;18.43;45.00;95026.27;1649026;86;21886;-59
2022/07/17 07:23:07;;;;;;;4.42;1.30;;;;;;;18.51;45.43;95021.80;1544369;90;21366;-58
2022/07/17 07:25:35;;;;;;;1.62;1.40;;;;;;;18.55;44.74;95020.95;1577139;88;21116;-58
2022/07/17 07:28:04;;;;;;;2.05;1.25;;;;;;;18.49;45.41;95020.76;1607995;88;21168;-57
2022/07/17 07:30:33;;;;;;;3.65;1.45;;;;;;;18.44;43.58;95013.11;1616694;87;21099;-60
2022/07/17 07:33:05;;;;;;;5.75;2.35;;;;;;;18.40;42.14;95013.33;1603259;88;21804;-58
2022/07/17 07:35:35;;;;;;;3.33;1.40;;;;;;;18.38;42.71;95013.05;1609951;88;21066;-59
2022/07/17 07:38:04;;;;;;;1.75;0.90;;;;;;;18.43;41.72;95004.62;1608868;88;21036;-57
2022/07/17 07:40:33;;;;;;;2.47;1.17;;;;;;;18.54;42.74;95008.28;1615725;88;21015;-57
2022/07/17 07:43:02;;;;;;;2.02;1.40;;;;;;;18.75;43.13;95010.35;1609087;88;21035;-57
2022/07/17 07:45:35;;;;;;;1.65;1.37;;;;;;;18.90;42.23;95011.77;1605215;88;21288;-59
2022/07/17 07:48:00;;;;;;;1.57;1.27;;;;;;;18.97;43.54;95009.92;1601296;87;21101;-57
2022/07/17 07:50:29;;;;;;;1.30;1.20;;;;;;;19.04;41.81;95005.92;1619744;87;21026;-58
2022/07/17 07:52:57;;;;;;;2.00;1.40;;;;;;;18.98;43.83;95001.69;1615076;88;21472;-58
2022/07/17 07:55:26;;;;;;;2.33;1.30;;;;;;;18.97;44.25;95004.34;1618998;88;21003;-58
2022/07/17 07:58:11;;;;;;;3.05;1.25;;;;;;;18.98;43.20;95003.73;1615506;88;21127;-58
2022/07/17 08:00:41;;;;;;;2.75;1.52;;;;;;;18.93;44.04;95007.22;1624442;86;20983;-58
2022/07/17 08:03:09;;;;;;;3.17;1.20;;;;;;;18.91;43.04;95009.12;1635808;86;21015;-58
2022/07/17 08:05:38;;;;;;;4.97;1.50;;;;;;;18.92;43.09;95012.66;1619426;86;39021;-59
2022/07/17 08:08:07;;;;;;;1.72;1.47;;;;;;;18.95;43.37;95013.84;1636771;86;20981;-58
2022/07/17 08:10:35;;;;;;;6.08;1.20;;;;;;;18.97;42.50;95010.56;1646651;86;21083;-58
2022/07/17 08:13:03;;;;;;;1.07;1.00;;;;;;;18.97;42.40;95011.31;1639824;86;21192;-59
2022/07/17 08:15:32;;;;;;;1.98;1.10;;;;;;;18.98;42.02;95011.45;1628777;86;21104;-57
2022/07/17 08:18:02;;;;;;;1.52;1.15;;;;;;;19.02;43.03;95016.16;1633913;86;21535;-57
2022/07/17 08:20:32;;;;;;;1.47;1.37;;;;;;;19.09;42.63;95014.34;1634813;86;20950;-58
2022/07/17 08:23:00;;;;;;;1.67;1.22;;;;;;;19.12;42.38;95016.75;1624646;86;21237;-58
2022/07/17 08:25:28;;;;;;;2.20;1.15;;;;;;;19.13;41.81;95020.45;1649502;86;20995;-58
2022/07/17 08:27:57;;;;;;;5.53;1.55;;;;;;;19.22;42.00;95015.34;1634780;86;21610;-58
2022/07/17 08:30:26;;;;;;;2.92;1.30;;;;;;;19.30;41.93;95013.61;1629272;86;21431;-57
2022/07/17 08:32:54;;;;;;;3.00;1.98;;;;;;;19.39;41.99;95009.25;1587255;88;21111;-59
2022/07/17 08:35:23;;;;;;;2.05;1.47;;;;;;;19.50;42.15;95012.87;1654730;84;21128;-59
2022/07/17 08:37:52;;;;;;;2.45;1.20;;;;;;;19.68;45.99;94998.51;1646614;85;21083;-59
2022/07/17 08:40:23;;;;;;;1.40;0.98;;;;;;;19.88;45.79;95007.34;1644702;86;21034;-58
2022/07/17 08:42:51;;;;;;;2.12;1.32;;;;;;;20.06;45.70;95010.52;1649419;85;21037;-57
2022/07/17 08:45:19;;;;;;;3.52;1.40;;;;;;;20.20;44.50;95006.11;1627669;86;21451;-58
2022/07/17 08:47:47;;;;;;;1.12;1.02;;;;;;;20.29;45.17;95004.51;1630547;86;21167;-58
2022/07/17 08:50:16;;;;;;;5.28;1.10;;;;;;;20.33;44.49;95014.02;1614591;86;21047;-59
2022/07/17 08:52:45;;;;;;;2.25;1.20;;;;;;;20.31;42.63;95008.18;1629761;86;20995;-58
2022/07/17 08:55:14;;;;;;;2.60;0.93;;;;;;;20.27;44.38;95009.06;1624049;86;21046;-58
2022/07/17 08:57:43;;;;;;;2.72;1.37;;;;;;;20.35;45.97;95010.12;1629046;86;21052;-59
2022/07/17 09:00:15;;;;;;;2.02;0.95;;;;;;;20.46;44.15;95005.94;1632040;86;21140;-58
2022/07/17 09:02:57;;;;;;;1.47;1.07;;;;;;;20.54;41.48;95010.53;1642742;86;21064;-58
2022/07/17 09:05:30;;;;;;;3.90;1.40;;;;;;;20.57;41.46;95006.72;1637243;87;21109;-60
2022/07/17 09:07:58;;;;;;;;;;;;;;;20.58;40.33;95012.44;1649121;86;21682;-58
2022/07/17 09:10:34;;;;;;;2.15;1.00;;;;;;;20.61;42.55;95003.69;1645159;86;20150;-57
2022/07/17 09:13:04;;;;;;;1.20;1.00;;;;;;;20.76;41.22;95012.61;1641243;86;21368;-58
2022/07/17 09:15:34;;;;;;;1.32;1.20;;;;;;;20.91;42.86;95016.72;1634341;87;21048;-59
2022/07/17 09:18:03;;;;;;;2.72;1.22;;;;;;;21.03;42.90;95009.86;1563974;89;21019;-58
2022/07/17 09:20:31;;;;;;;1.22;1.12;;;;;;;21.15;40.84;95013.42;1558362;88;21622;-57
2022/07/17 09:23:01;;;;;;;2.55;1.10;;;;;;;21.22;42.82;95018.50;1594896;88;21463;-58
2022/07/17 09:25:36;;;;;;;1.67;1.12;;;;;;;21.26;42.42;95019.03;1620847;88;21861;-58
2022/07/17 09:28:05;;;;;;;1.22;0.93;;;;;;;21.23;42.67;95022.82;1599432;88;21024;-59
2022/07/17 09:30:37;;;;;;;2.60;0.90;;;;;;;21.16;43.48;95021.32;1613218;88;21039;-59
2022/07/17 09:33:14;;;;;;;1.05;0.90;;;;;;;21.18;43.83;95020.80;1576852;89;20988;-58
2022/07/17 09:35:55;;;;;;;1.60;1.30;;;;;;;21.24;43.67;95020.15;1618729;86;21039;-58
2022/07/17 09:38:33;;;;;;;1.05;0.95;;;;;;;21.20;43.83;95028.05;1650751;86;21385;-58
2022/07/17 09:41:17;;;;;;;2.08;1.00;;;;;;;21.03;43.30;95031.47;1654151;86;21019;-58
2022/07/17 09:43:58;;;;;;;0.98;0.80;;;;;;;20.97;45.04;95027.92;1638822;86;20983;-57
2022/07/17 09:46:32;;;;;;;1.98;1.10;;;;;;;21.02;44.21;95042.53;1636490;86;21485;-58
2022/07/17 09:49:04;;;;;;;2.62;1.10;;;;;;;21.09;43.22;95040.66;1632439;86;21156;-58
2022/07/17 09:51:41;;;;;;;2.08;0.95;;;;;;;21.18;42.51;95034.79;1638726;86;21137;-58
2022/07/17 09:54:07;;;;;;;2.20;1.00;;;;;;;21.14;41.87;95032.23;1635663;86;20975;-57
2022/07/17 09:56:36;;;;;;;1.00;0.90;;;;;;;20.99;43.56;95033.77;1648900;86;21011;-59
2022/07/17 09:59:12;;;;;;;1.20;0.90;;;;;;;20.86;43.35;95036.28;1632887;86;21587;-58
2022/07/17 10:01:41;;;;;;;2.65;1.02;;;;;;;20.80;44.59;95035.49;1636049;86;21056;-57
2022/07/17 10:04:10;;;;;;;1.77;1.05;;;;;;;20.91;44.94;95025.77;1637179;86;21758;-58
2022/07/17 10:06:38;;;;;;;0.78;0.70;;;;;;;21.00;43.10;95043.68;1633011;86;21117;-58
2022/07/17 10:09:06;;;;;;;4.55;1.20;;;;;;;20.97;42.78;95048.90;1640349;86;20991;-57
2022/07/17 10:11:37;;;;;;;1.10;1.00;;;;;;;20.96;43.91;95047.37;1643267;86;20998;-57
2022/07/17 10:14:10;;;;;;;1.37;1.22;;;;;;;21.02;43.31;95042.53;1630699;86;21092;-58
2022/07/17 10:16:39;;;;;;;1.07;0.98;;;;;;;21.16;44.21;95024.74;1641968;87;21159;-57
2022/07/17 10:19:21;;;;;;;3.40;1.00;;;;;;;21.33;43.04;95036.70;1639982;86;20983;-57
2022/07/17 10:22:00;;;;;;;2.45;0.90;;;;;;;21.49;42.21;95033.13;1597593;86;21139;-57
2022/07/17 10:24:29;;;;;;;1.27;1.00;;;;;;;21.55;42.32;95036.67;1645677;86;20982;-60
2022/07/17 10:26:58;;;;;;;1.52;0.90;;;;;;;21.69;41.66;95035.67;1644851;85;21586;-57
2022/07/17 10:29:36;;;;;;;0.95;0.80;;;;;;;21.82;42.44;95038.70;1644672;86;21246;-58
2022/07/17 10:32:10;;;;;;;0.78;0.78;;;;;;;21.77;40.47;95046.46;1625677;86;21561;-59
2022/07/17 10:34:45;;;;;;;1.30;0.78;;;;;;;21.78;40.40;95033.36;1626140;86;20994;-58
2022/07/17 10:37:25;;;;;;;1.75;0.78;;;;;;;21.93;40.81;95033.05;1646968;86;21039;-59
2022/07/17 10:39:57;;;;;;;1.37;0.80;;;;;;;22.26;42.12;95028.86;1646116;86;21089;-59
2022/07/17 10:42:48;;;;;;;1.87;0.98;;;;;;;22.54;41.51;95036.55;1561258;90;21257;-58
2022/07/17 10:45:25;;;;;;;1.07;0.98;;;;;;;22.71;40.66;95028.80;1611531;88;21047;-59
2022/07/17 10:47:57;;;;;;;1.65;1.17;;;;;;;22.66;38.58;95021.81;1609890;88;21008;-58
2022/07/17 10:50:29;;;;;;;1.60;0.90;;;;;;;23.00;40.67;95030.15;1612864;87;21484;-60
2022/07/17 10:53:16;;;;;;;1.22;1.12;;;;;;;23.50;40.57;95040.35;1617052;88;20991;-58
2022/07/17 10:55:47;;;;;;;1.45;0.90;;;;;;;23.43;39.67;95034.66;1602400;88;22143;-57
2022/07/17 10:58:29;;;;;;;2.00;0.90;;;;;;;23.25;38.57;95038.16;1604743;88;21038;-58
2022/07/17 11:01:06;;;;;;;1.20;1.00;;;;;;;22.91;38.42;95041.05;1605006;88;20991;-59
2022/07/17 11:03:55;;;;;;;0.95;0.78;;;;;;;22.48;38.87;95042.80;1605631;88;21102;-59
2022/07/17 11:06:32;;;;;;;2.80;1.22;;;;;;;22.13;38.99;95044.06;1613518;88;21176;-59
2022/07/17 11:09:05;;;;;;;0.98;0.85;;;;;;;21.91;39.87;95050.40;1609297;88;21939;-57
2022/07/17 11:11:42;;;;;;;;;;;;;;;21.75;39.83;95042.02;1589930;88;21477;-60
2022/07/17 11:14:18;;;;;;;1.77;1.00;;;;;;;21.57;40.19;95032.72;1569922;88;20458;-60
2022/07/17 11:16:55;;;;;;;1.98;1.00;;;;;;;21.41;41.50;95041.27;1613850;88;21539;-57
2022/07/17 11:19:27;;;;;;;5.72;1.32;;;;;;;21.24;41.41;95036.94;1632337;86;21166;-58
2022/07/17 11:21:57;;;;;;;1.00;0.95;;;;;;;21.71;42.11;95037.31;1644393;87;21127;-58
2022/07/17 11:24:26;;;;;;;4.10;1.07;;;;;;;22.34;41.12;95044.51;1637107;86;21137;-58
2022/07/17 11:26:54;;;;;;;6.70;1.10;;;;;;;23.14;39.69;95042.44;1625273;87;21039;-59
2022/07/17 11:29:22;;;;;;;0.85;0.60;;;;;;;24.01;38.00;95045.11;1641397;86;21252;-59
2022/07/17 11:31:58;;;;;;;2.90;1.00;;;;;;;24.48;37.90;95053.39;1648238;86;20951;-59
2022/07/17 11:34:28;;;;;;;1.80;0.80;;;;;;;25.17;35.43;95056.31;1639968;86;21906;-58
2022/07/17 11:37:03;;;;;;;3.70;0.90;;;;;;;25.55;35.28;95054.97;1631927;86;21019;-59
2022/07/17 11:39:41;;;;;;;2.05;1.10;;;;;;;25.90;35.14;95035.69;1634021;86;21093;-59
2022/07/17 11:42:12;;;;;;;1.98;0.98;;;;;;;25.84;34.36;95055.37;1645703;86;20987;-59
2022/07/17 11:44:41;;;;;;;2.80;1.00;;;;;;;25.53;34.46;95054.11;1634274;86;21066;-60
2022/07/17 11:47:10;;;;;;;2.00;0.78;;;;;;;25.16;34.38;95066.80;1643261;86;21171;-59